الصفحة الرئيسية
METAR-TAF:

METAR-TAF

مطار :

مطار كوبنهاغن

كوبنهاغن, الدنمارك

دائرة عرض: 55-37N, خط طول: 012-39E, ارتفاع: 5 متر

مراقبة الطقس الحالي

تاريخ ووقت الإصدار 37 دقيقة قبل الساعة 01:20UTC
رياح هادئة
درجة الحرارة 9°درجة مئوية
الرطوبة 100%
ضغط 1019 hPa
الرؤية: 0250 متر
ضباب

METAR: EKCH 170120Z 00000KT 0250 R22L/0225N R04L/0375N R12/0325N FG VV001 09/09 Q1019 TEMPO 0100

زمن: 03:57 (01:57 UTC)

توقعات

تاريخ ووقت الإصدار 2ساعات و 9 دقيقة قبل الساعة 23:48UTC
التوقعات صالحة من17 الساعة 00 UTC إلى 17 الساعة 24 UTC
ريح 2 عقدةمن اتجاهات متغيرة
الرؤية: 0100 متر
على ارتفاع 100 قدم
ضباب
مؤقت
من 17 الساعة 00 UTC إلى 17 الساعة 06 UTC
الرؤية: 1500 متر
غيوم قليلة على ارتفاع 100 قدم
غشاء
أصبح
من 17 الساعة 06 UTC إلى 17 الساعة 08 UTC
ريح 6 عقدة من الجنوب
الرؤية 10 كم أو أكثر
نظرية الاحتمالات 40%
من 17 الساعة 20 UTC إلى 17 الساعة 24 UTC
الرؤية: 1200 متر
غشاء

TAF: EKCH 162348Z 1700/1724 VRB02KT 0100 FG VV001 TEMPO 1700/1706 1500 BR FEW001 BECMG 1706/1708 17006KT 9999 NSW PROB40 1720/1724 1200 BR

أرصاد الطقس والتوقعات من أكثر من 4000 مطار (تقارير الطقس للمطار METAR والتنبؤ بالطقس بالمطارTAF).

المحطات المتاحة هي النقط الصفراء والحمراء على الخريطة.

حرك المؤشر فوق النقطة لمعرفة اسم المحطة.

ثم انقر لمعرفة أرصاد وتوقعات الطقس.

لتغيير الخارطة: اضغط على الأزرار الخضراء مع رمز الصليب الأسود للتكبير. على الزر الأخضر مع شرطة للتصغير، أو على الأسهم الخضراء للخرائط المجاورة.


METAR-TAF: